Time;durP1;ratioP1;P1;durP2;ratioP2;P2;SDS_P1;SDS_P2;PMS_P1;PMS_P2;Temp;Humidity;BMP_temperature;BMP_pressure;BME280_temperature;BME280_humidity;BME280_pressure;Samples;Min_cycle;Max_cycle;Signal;HPM_P1;HPM_P2
2021/07/19 00:00:29;;;;;;;4.38;2.90;;;;;;;;;;5024146;28;20920;-78
2021/07/19 00:03:14;;;;;;;4.05;2.75;;;;;;;;;;5024652;28;20051;-78
2021/07/19 00:05:58;;;;;;;3.55;2.65;;;;;;;;;;5024975;28;20063;-79
2021/07/19 00:08:43;;;;;;;4.22;2.67;;;;;;;;;;5024788;28;20044;-78
2021/07/19 00:11:27;;;;;;;3.58;2.60;;;;;;;;;;5024598;28;20048;-78
2021/07/19 00:14:12;;;;;;;4.60;2.70;;;;;;;;;;5024673;28;20060;-78
2021/07/19 00:16:57;;;;;;;3.92;3.03;;;;;;;;;;5023858;28;20513;-78
2021/07/19 00:19:41;;;;;;;4.20;2.65;;;;;;;;;;5024680;28;20091;-78
2021/07/19 00:22:26;;;;;;;3.53;2.50;;;;;;;;;;5024322;28;20045;-78
2021/07/19 00:25:11;;;;;;;3.42;2.58;;;;;;;;;;5023848;28;20099;-78
2021/07/19 00:27:56;;;;;;;3.33;2.33;;;;;;;;;;5023742;28;20596;-79
2021/07/19 00:30:41;;;;;;;3.58;2.50;;;;;;;;;;5007126;28;20576;-78
2021/07/19 00:33:26;;;;;;;2.97;2.25;;;;;;;;;;5023998;28;20103;-78
2021/07/19 00:36:11;;;;;;;3.35;2.15;;;;;;;;;;5024087;28;20494;-78
2021/07/19 00:38:55;;;;;;;4.20;2.40;;;;;;;;;;5024228;28;20079;-78
2021/07/19 00:41:40;;;;;;;3.72;2.47;;;;;;;;;;5024019;28;20614;-77
2021/07/19 00:44:25;;;;;;;3.20;2.20;;;;;;;;;;5024896;28;20043;-78
2021/07/19 00:47:10;;;;;;;2.95;2.30;;;;;;;;;;5023504;28;20106;-79
2021/07/19 00:49:55;;;;;;;3.45;2.42;;;;;;;;;;5009497;28;20083;-77
2021/07/19 00:52:39;;;;;;;2.63;2.20;;;;;;;;;;5024925;28;20060;-76
2021/07/19 00:55:41;;;;;;;5.72;2.53;;;;;;;;;;5023996;28;20442;-78
2021/07/19 00:58:26;;;;;;;3.63;2.20;;;;;;;;;;5023399;28;20513;-78
2021/07/19 01:01:11;;;;;;;3.58;2.60;;;;;;;;;;5023146;28;20132;-78
2021/07/19 01:03:56;;;;;;;3.13;2.10;;;;;;;;;;5004341;28;20124;-79
2021/07/19 01:06:41;;;;;;;2.85;2.30;;;;;;;;;;5012209;28;20505;-78
2021/07/19 01:09:26;;;;;;;3.13;2.60;;;;;;;;;;5023634;28;20079;-78
2021/07/19 01:12:11;;;;;;;3.47;2.22;;;;;;;;;;5023857;28;20554;-78
2021/07/19 01:14:55;;;;;;;4.28;2.38;;;;;;;;;;5009865;28;20107;-79
2021/07/19 01:17:41;;;;;;;2.75;2.03;;;;;;;;;;5009534;28;20049;-77
2021/07/19 01:20:40;;;;;;;3.55;2.40;;;;;;;;;;5023272;28;20060;-78
2021/07/19 01:23:24;;;;;;;3.85;2.28;;;;;;;;;;5023812;28;20556;-78
2021/07/19 01:26:29;;;;;;;3.63;2.35;;;;;;;;;;5024720;28;20069;-78
2021/07/19 01:29:14;;;;;;;3.42;2.10;;;;;;;;;;5024330;28;20180;-78
2021/07/19 01:31:59;;;;;;;3.00;2.00;;;;;;;;;;5017423;28;20100;-78
2021/07/19 01:34:44;;;;;;;2.70;2.22;;;;;;;;;;5023009;28;20040;-78
2021/07/19 01:37:29;;;;;;;2.70;2.10;;;;;;;;;;5023170;28;20096;-78
2021/07/19 01:40:13;;;;;;;3.58;2.20;;;;;;;;;;5023463;28;20476;-78
2021/07/19 01:42:58;;;;;;;2.60;2.05;;;;;;;;;;5009960;28;20154;-78
2021/07/19 01:45:43;;;;;;;3.05;2.10;;;;;;;;;;5010046;28;20040;-78
2021/07/19 01:48:28;;;;;;;2.75;2.10;;;;;;;;;;5026838;28;20091;-78
2021/07/19 01:51:13;;;;;;;3.42;2.03;;;;;;;;;;5025568;28;20047;-78
2021/07/19 01:53:57;;;;;;;2.95;2.00;;;;;;;;;;5014157;28;20087;-78
2021/07/19 01:56:43;;;;;;;3.25;2.00;;;;;;;;;;5026353;28;20044;-78
2021/07/19 01:59:28;;;;;;;3.08;1.98;;;;;;;;;;5025299;28;20039;-78
2021/07/19 02:02:15;;;;;;;3.15;1.98;;;;;;;;;;5025261;28;20612;-78
2021/07/19 02:05:00;;;;;;;2.55;1.85;;;;;;;;;;5025651;28;20041;-78
2021/07/19 02:07:44;;;;;;;2.95;1.90;;;;;;;;;;5025847;28;20043;-78
2021/07/19 02:10:29;;;;;;;2.22;1.90;;;;;;;;;;5024861;28;20152;-78
2021/07/19 02:13:14;;;;;;;3.92;2.20;;;;;;;;;;5025755;28;20071;-78
2021/07/19 02:15:59;;;;;;;2.30;1.70;;;;;;;;;;5024889;28;20634;-78
2021/07/19 02:18:43;;;;;;;2.95;1.90;;;;;;;;;;5025108;28;20044;-78
2021/07/19 02:21:28;;;;;;;2.60;1.80;;;;;;;;;;5011036;28;20130;-78
2021/07/19 02:24:12;;;;;;;2.47;1.50;;;;;;;;;;5024991;28;20138;-78
2021/07/19 02:26:57;;;;;;;2.65;1.75;;;;;;;;;;5011569;28;20095;-78
2021/07/19 02:29:42;;;;;;;3.17;2.03;;;;;;;;;;5013482;28;20120;-78
2021/07/19 02:32:26;;;;;;;2.88;1.77;;;;;;;;;;5024566;28;20067;-78
2021/07/19 02:35:12;;;;;;;3.13;1.80;;;;;;;;;;5026355;28;20583;-78
2021/07/19 02:37:58;;;;;;;2.60;1.98;;;;;;;;;;5025066;28;20509;-78
2021/07/19 02:40:44;;;;;;;2.60;1.70;;;;;;;;;;5025118;28;20136;-78
2021/07/19 02:43:28;;;;;;;1.98;1.67;;;;;;;;;;5025074;28;20044;-78
2021/07/19 02:46:13;;;;;;;2.15;1.60;;;;;;;;;;5010941;28;20121;-78
2021/07/19 02:48:58;;;;;;;2.13;1.40;;;;;;;;;;5011074;28;20105;-79
2021/07/19 02:51:43;;;;;;;2.80;1.60;;;;;;;;;;5028277;28;20048;-78
2021/07/19 02:54:27;;;;;;;2.20;1.50;;;;;;;;;;5014648;28;20040;-78
2021/07/19 02:57:11;;;;;;;2.05;1.60;;;;;;;;;;5014739;28;20441;-78
2021/07/19 02:59:57;;;;;;;1.92;1.40;;;;;;;;;;5028716;28;20036;-78
2021/07/19 03:02:46;;;;;;;2.20;1.33;;;;;;;;;;5026111;28;20036;-78
2021/07/19 03:05:33;;;;;;;1.55;1.27;;;;;;;;;;5028226;28;20525;-79
2021/07/19 03:08:18;;;;;;;1.65;1.45;;;;;;;;;;5009135;28;20048;-78
2021/07/19 03:11:04;;;;;;;1.90;1.30;;;;;;;;;;5014178;28;20059;-78
2021/07/19 03:13:50;;;;;;;1.65;1.17;;;;;;;;;;5029510;28;20039;-79
2021/07/19 03:16:35;;;;;;;1.60;1.15;;;;;;;;;;5028205;28;20051;-79
2021/07/19 03:19:20;;;;;;;1.55;1.20;;;;;;;;;;5022878;28;20180;-79
2021/07/19 03:22:05;;;;;;;1.70;1.33;;;;;;;;;;5027771;28;20090;-79
2021/07/19 03:24:50;;;;;;;1.92;1.10;;;;;;;;;;5013917;28;20050;-78
2021/07/19 03:27:36;;;;;;;2.63;1.30;;;;;;;;;;5028199;28;20433;-79
2021/07/19 03:30:20;;;;;;;2.35;1.30;;;;;;;;;;5027918;28;20502;-78
2021/07/19 03:33:05;;;;;;;1.73;1.40;;;;;;;;;;5028352;28;20103;-78
2021/07/19 03:35:50;;;;;;;2.05;1.20;;;;;;;;;;5028339;28;20044;-78
2021/07/19 03:38:34;;;;;;;1.90;1.30;;;;;;;;;;5026839;28;20059;-78
2021/07/19 03:41:19;;;;;;;1.98;1.33;;;;;;;;;;5027891;28;20118;-78
2021/07/19 03:44:04;;;;;;;1.60;1.25;;;;;;;;;;5028003;28;20049;-78
2021/07/19 03:46:49;;;;;;;2.22;1.30;;;;;;;;;;5008952;28;20116;-78
2021/07/19 03:49:33;;;;;;;2.92;1.50;;;;;;;;;;5027819;28;20068;-78
2021/07/19 03:52:18;;;;;;;1.98;1.20;;;;;;;;;;5027183;28;20107;-78
2021/07/19 03:55:03;;;;;;;1.30;1.10;;;;;;;;;;5027151;28;20441;-78
2021/07/19 03:57:47;;;;;;;1.67;1.10;;;;;;;;;;5027547;28;20108;-78
2021/07/19 04:00:32;;;;;;;1.63;1.00;;;;;;;;;;5027437;28;20053;-78
2021/07/19 04:03:24;;;;;;;1.83;1.27;;;;;;;;;;5013579;28;20138;-78
2021/07/19 04:06:11;;;;;;;1.73;1.20;;;;;;;;;;5027299;28;20027;-78
2021/07/19 04:08:55;;;;;;;1.40;1.10;;;;;;;;;;5027653;28;20414;-78
2021/07/19 04:11:40;;;;;;;2.00;1.30;;;;;;;;;;5027163;28;20060;-78
2021/07/19 04:14:25;;;;;;;1.58;0.95;;;;;;;;;;5026796;28;20167;-78
2021/07/19 04:17:10;;;;;;;1.60;1.20;;;;;;;;;;5012823;28;20048;-78
2021/07/19 04:19:54;;;;;;;1.83;1.27;;;;;;;;;;5026728;28;20109;-78
2021/07/19 04:22:39;;;;;;;1.58;1.20;;;;;;;;;;5024870;28;20734;-78
2021/07/19 04:25:25;;;;;;;1.52;1.20;;;;;;;;;;5026494;28;20156;-78
2021/07/19 04:28:10;;;;;;;1.58;1.20;;;;;;;;;;5028181;28;20164;-78
2021/07/19 04:30:54;;;;;;;1.77;1.17;;;;;;;;;;5026406;28;20080;-78
2021/07/19 04:33:43;;;;;;;2.15;1.20;;;;;;;;;;5026665;28;20128;-78
2021/07/19 04:36:28;;;;;;;1.60;1.13;;;;;;;;;;5017534;28;20079;-78
2021/07/19 04:39:13;;;;;;;1.88;1.17;;;;;;;;;;5024413;28;20306;-79
2021/07/19 04:41:58;;;;;;;2.00;1.10;;;;;;;;;;5012568;28;20044;-78
2021/07/19 04:44:42;;;;;;;1.88;1.10;;;;;;;;;;5027094;28;20088;-78
2021/07/19 04:47:27;;;;;;;1.65;1.10;;;;;;;;;;5012694;28;20039;-78
2021/07/19 04:50:15;;;;;;;1.67;1.15;;;;;;;;;;5024848;28;20048;-77
2021/07/19 04:52:59;;;;;;;2.13;1.27;;;;;;;;;;5023694;28;20115;-78
2021/07/19 04:55:45;;;;;;;1.85;1.13;;;;;;;;;;5024847;28;20566;-77
2021/07/19 04:58:30;;;;;;;1.75;1.20;;;;;;;;;;5004259;28;20096;-77
2021/07/19 05:01:14;;;;;;;3.33;1.20;;;;;;;;;;5018961;28;20052;-78
2021/07/19 05:03:59;;;;;;;1.70;1.20;;;;;;;;;;5017066;28;20040;-78
2021/07/19 05:06:44;;;;;;;1.77;1.30;;;;;;;;;;5013562;28;20040;-77
2021/07/19 05:09:29;;;;;;;3.40;1.27;;;;;;;;;;5009940;28;20048;-79
2021/07/19 05:12:17;;;;;;;1.83;1.17;;;;;;;;;;5023035;28;20052;-78
2021/07/19 05:15:02;;;;;;;2.08;1.20;;;;;;;;;;5023323;28;20047;-78
2021/07/19 05:17:47;;;;;;;1.67;1.08;;;;;;;;;;5024048;28;20048;-79
2021/07/19 05:20:31;;;;;;;2.08;1.40;;;;;;;;;;5023411;28;20055;-78
2021/07/19 05:23:20;;;;;;;1.83;1.20;;;;;;;;;;5023469;28;20097;-78
2021/07/19 05:26:05;;;;;;;2.40;1.30;;;;;;;;;;5009637;28;20095;-78
2021/07/19 05:28:49;;;;;;;1.63;1.13;;;;;;;;;;5024850;28;20052;-79
2021/07/19 05:31:36;;;;;;;1.63;1.40;;;;;;;;;;5022963;28;20413;-78
2021/07/19 05:34:21;;;;;;;3.17;1.30;;;;;;;;;;5020195;28;20044;-78
2021/07/19 05:37:05;;;;;;;3.50;1.52;;;;;;;;;;5023138;28;20095;-78
2021/07/19 05:39:50;;;;;;;2.65;1.30;;;;;;;;;;5023324;28;20565;-78
2021/07/19 05:42:35;;;;;;;2.30;1.40;;;;;;;;;;5009557;28;20125;-78
2021/07/19 05:45:19;;;;;;;2.85;1.50;;;;;;;;;;5024578;28;20052;-78
2021/07/19 05:48:05;;;;;;;2.42;1.30;;;;;;;;;;5024304;28;20037;-78
2021/07/19 05:50:49;;;;;;;2.33;1.50;;;;;;;;;;5009764;28;20505;-78
2021/07/19 05:53:34;;;;;;;1.88;1.17;;;;;;;;;;5024502;28;20172;-78
2021/07/19 05:56:18;;;;;;;4.18;1.52;;;;;;;;;;5024479;28;20037;-78
2021/07/19 05:59:03;;;;;;;2.38;1.30;;;;;;;;;;5022768;28;20044;-78
2021/07/19 06:01:48;;;;;;;3.00;1.42;;;;;;;;;;5023326;28;20558;-78
2021/07/19 06:04:33;;;;;;;2.25;1.40;;;;;;;;;;5024607;28;20123;-79
2021/07/19 06:07:17;;;;;;;1.90;1.30;;;;;;;;;;5023801;28;20124;-78
2021/07/19 06:10:03;;;;;;;2.90;1.10;;;;;;;;;;5023752;28;20040;-78
2021/07/19 06:12:48;;;;;;;1.90;1.38;;;;;;;;;;5024415;28;20103;-79
2021/07/19 06:15:33;;;;;;;1.95;1.27;;;;;;;;;;5023735;28;21063;-78
2021/07/19 06:18:17;;;;;;;2.35;1.30;;;;;;;;;;5023308;28;20517;-78
2021/07/19 06:21:03;;;;;;;2.45;1.55;;;;;;;;;;5023974;28;20500;-77
2021/07/19 06:23:48;;;;;;;2.58;1.20;;;;;;;;;;5022756;28;20044;-78
2021/07/19 06:26:32;;;;;;;1.80;1.30;;;;;;;;;;5026253;28;20133;-79
2021/07/19 06:29:16;;;;;;;2.67;1.30;;;;;;;;;;5026686;28;20063;-78
2021/07/19 06:32:01;;;;;;;2.83;1.20;;;;;;;;;;5027469;28;20052;-78
2021/07/19 06:34:46;;;;;;;2.10;1.27;;;;;;;;;;5026986;28;20044;-79
2021/07/19 06:37:31;;;;;;;1.95;1.45;;;;;;;;;;5027557;28;20049;-79
2021/07/19 06:40:16;;;;;;;3.65;1.60;;;;;;;;;;5026745;28;20111;-77
2021/07/19 06:43:00;;;;;;;2.05;1.30;;;;;;;;;;5027561;28;20057;-78
2021/07/19 06:45:47;;;;;;;2.20;1.52;;;;;;;;;;5027178;28;20114;-78
2021/07/19 06:48:32;;;;;;;2.45;1.60;;;;;;;;;;5027717;28;20090;-79
2021/07/19 06:51:17;;;;;;;2.47;1.42;;;;;;;;;;5026558;28;20064;-78
2021/07/19 06:54:02;;;;;;;2.50;1.48;;;;;;;;;;5027403;28;20144;-79
2021/07/19 06:56:46;;;;;;;2.08;1.65;;;;;;;;;;5012433;28;20088;-78
2021/07/19 06:59:31;;;;;;;2.70;1.60;;;;;;;;;;5026040;28;20049;-78
2021/07/19 07:02:16;;;;;;;1.92;1.45;;;;;;;;;;5027399;28;20060;-78
2021/07/19 07:05:00;;;;;;;2.45;1.33;;;;;;;;;;5026174;28;20048;-78
2021/07/19 07:07:45;;;;;;;2.00;1.48;;;;;;;;;;5027285;28;20643;-78
2021/07/19 07:10:30;;;;;;;2.35;1.48;;;;;;;;;;5006432;28;20045;-77
2021/07/19 07:13:15;;;;;;;2.38;1.45;;;;;;;;;;5006449;28;20068;-79
2021/07/19 07:16:00;;;;;;;2.00;1.30;;;;;;;;;;5008382;28;20115;-78
2021/07/19 07:18:45;;;;;;;2.97;1.50;;;;;;;;;;5027125;28;20100;-79
2021/07/19 07:21:31;;;;;;;5.55;1.52;;;;;;;;;;5025480;28;20095;-78
2021/07/19 07:24:16;;;;;;;3.45;1.48;;;;;;;;;;5025264;28;20060;-79
2021/07/19 07:27:00;;;;;;;2.42;1.45;;;;;;;;;;5015394;28;20114;-79
2021/07/19 07:29:45;;;;;;;2.58;1.80;;;;;;;;;;5025403;28;20133;-78
2021/07/19 07:32:29;;;;;;;3.05;1.50;;;;;;;;;;5025106;28;20095;-79
2021/07/19 07:35:14;;;;;;;4.20;1.58;;;;;;;;;;5024783;28;20040;-79
2021/07/19 07:37:59;;;;;;;2.53;1.52;;;;;;;;;;5025288;28;20208;-78
2021/07/19 07:40:44;;;;;;;2.75;1.42;;;;;;;;;;5026167;28;20053;-79
2021/07/19 07:43:28;;;;;;;3.95;1.50;;;;;;;;;;5026485;28;20568;-78
2021/07/19 07:46:13;;;;;;;2.38;1.50;;;;;;;;;;5024887;28;20410;-78
2021/07/19 07:48:57;;;;;;;2.38;1.70;;;;;;;;;;5011166;28;20576;-78
2021/07/19 07:51:42;;;;;;;2.03;1.42;;;;;;;;;;5006591;28;20525;-78
2021/07/19 07:54:27;;;;;;;2.58;1.40;;;;;;;;;;5015346;28;20181;-78
2021/07/19 07:57:11;;;;;;;2.15;1.60;;;;;;;;;;5018469;28;20048;-78
2021/07/19 07:59:56;;;;;;;2.75;1.70;;;;;;;;;;5024343;28;20095;-78
2021/07/19 08:02:41;;;;;;;3.58;1.50;;;;;;;;;;5024635;28;20647;-77
2021/07/19 08:05:26;;;;;;;2.65;1.50;;;;;;;;;;5024584;28;20040;-79
2021/07/19 08:08:11;;;;;;;3.03;1.70;;;;;;;;;;5010300;28;20044;-78
2021/07/19 08:10:56;;;;;;;3.03;1.55;;;;;;;;;;5024324;28;20509;-78
2021/07/19 08:13:40;;;;;;;2.45;1.80;;;;;;;;;;5024483;28;20044;-79
2021/07/19 08:16:25;;;;;;;2.90;1.67;;;;;;;;;;5024984;28;20040;-78
2021/07/19 08:19:09;;;;;;;2.63;1.92;;;;;;;;;;5015598;28;20049;-78
2021/07/19 08:21:56;;;;;;;2.97;1.40;;;;;;;;;;5025528;28;20084;-78
2021/07/19 08:24:41;;;;;;;2.95;1.63;;;;;;;;;;5024752;28;20048;-78
2021/07/19 08:27:26;;;;;;;1.70;1.42;;;;;;;;;;5015735;28;20414;-78
2021/07/19 08:30:11;;;;;;;2.85;1.70;;;;;;;;;;5013416;28;20410;-79
2021/07/19 08:32:57;;;;;;;3.03;1.50;;;;;;;;;;5023216;28;20464;-79
2021/07/19 08:35:42;;;;;;;2.53;1.60;;;;;;;;;;5023941;28;20045;-78
2021/07/19 08:38:26;;;;;;;3.53;1.88;;;;;;;;;;5023570;28;20075;-78
2021/07/19 08:41:12;;;;;;;3.95;1.70;;;;;;;;;;5024278;28;20851;-79
2021/07/19 08:43:57;;;;;;;2.60;1.60;;;;;;;;;;5023724;28;20067;-78
2021/07/19 08:46:42;;;;;;;3.28;1.60;;;;;;;;;;5023018;28;20520;-78
2021/07/19 08:49:29;;;;;;;3.53;1.42;;;;;;;;;;5024523;28;20047;-79
2021/07/19 08:52:15;;;;;;;2.65;1.73;;;;;;;;;;5010624;28;20060;-79
2021/07/19 08:55:00;;;;;;;2.97;1.70;;;;;;;;;;5023389;28;20500;-78
2021/07/19 08:57:46;;;;;;;2.60;1.60;;;;;;;;;;5022714;28;20087;-78
2021/07/19 09:00:30;;;;;;;3.47;1.70;;;;;;;;;;5011397;28;20445;-78
2021/07/19 09:03:15;;;;;;;2.30;1.70;;;;;;;;;;5024583;28;20180;-78
2021/07/19 09:06:00;;;;;;;2.92;1.55;;;;;;;;;;5024323;28;20040;-79
2021/07/19 09:08:47;;;;;;;3.05;1.70;;;;;;;;;;5010972;28;20406;-79
2021/07/19 09:11:32;;;;;;;3.70;1.75;;;;;;;;;;5024373;28;20068;-78
2021/07/19 09:14:16;;;;;;;2.50;1.42;;;;;;;;;;5017927;28;20540;-79
2021/07/19 09:17:01;;;;;;;2.78;1.75;;;;;;;;;;5024162;28;20894;-79
2021/07/19 09:19:46;;;;;;;2.42;1.67;;;;;;;;;;5023144;28;20772;-78
2021/07/19 09:22:31;;;;;;;2.72;1.60;;;;;;;;;;5021568;28;20492;-78
2021/07/19 09:25:17;;;;;;;3.50;1.75;;;;;;;;;;5024132;28;20092;-79
2021/07/19 09:28:04;;;;;;;2.97;1.80;;;;;;;;;;5023309;28;20584;-79
2021/07/19 09:30:49;;;;;;;2.15;1.50;;;;;;;;;;5023878;28;20509;-79
2021/07/19 09:33:35;;;;;;;3.33;1.65;;;;;;;;;;5024703;28;20040;-79
2021/07/19 09:36:22;;;;;;;2.35;1.58;;;;;;;;;;5021924;28;20102;-79
2021/07/19 09:39:07;;;;;;;1.98;1.65;;;;;;;;;;5020159;28;20115;-78
2021/07/19 09:41:52;;;;;;;3.65;1.60;;;;;;;;;;5009430;28;20167;-79
2021/07/19 09:44:37;;;;;;;2.35;1.80;;;;;;;;;;5023581;28;20360;-79
2021/07/19 09:47:31;;;;;;;3.28;1.83;;;;;;;;;;5023240;28;20048;-78
2021/07/19 09:50:17;;;;;;;3.05;1.70;;;;;;;;;;5016453;28;20043;-79
2021/07/19 09:53:02;;;;;;;3.67;1.80;;;;;;;;;;5024721;28;20107;-79
2021/07/19 09:55:47;;;;;;;2.83;1.90;;;;;;;;;;5023122;28;20044;-79
2021/07/19 09:58:31;;;;;;;3.13;1.85;;;;;;;;;;5024632;28;20048;-78
2021/07/19 10:01:26;;;;;;;2.97;1.88;;;;;;;;;;5028497;28;20107;-79
2021/07/19 10:04:11;;;;;;;3.72;1.75;;;;;;;;;;5028791;28;20063;-79
2021/07/19 10:06:58;;;;;;;2.60;1.65;;;;;;;;;;5025822;28;20047;-77
2021/07/19 10:09:42;;;;;;;2.97;2.10;;;;;;;;;;5024274;28;20581;-78
2021/07/19 10:12:27;;;;;;;3.47;2.05;;;;;;;;;;5027461;28;20506;-78
2021/07/19 10:15:12;;;;;;;3.17;1.70;;;;;;;;;;5027126;28;20421;-78
2021/07/19 10:17:56;;;;;;;2.33;1.77;;;;;;;;;;5026045;28;20500;-78
2021/07/19 10:20:41;;;;;;;3.00;1.92;;;;;;;;;;5023896;28;20041;-78
2021/07/19 10:23:25;;;;;;;3.42;1.83;;;;;;;;;;5015052;28;20071;-78
2021/07/19 10:26:11;;;;;;;4.18;1.90;;;;;;;;;;5026494;28;20124;-79
2021/07/19 10:28:56;;;;;;;4.00;2.15;;;;;;;;;;5025103;28;20056;-78
2021/07/19 10:31:40;;;;;;;3.15;2.10;;;;;;;;;;5024916;28;20056;-78
2021/07/19 10:34:25;;;;;;;2.72;1.70;;;;;;;;;;5011510;28;20510;-78
2021/07/19 10:37:10;;;;;;;3.25;1.85;;;;;;;;;;5022729;28;20095;-78
2021/07/19 10:39:56;;;;;;;3.72;2.10;;;;;;;;;;5007395;28;20075;-78
2021/07/19 10:42:45;;;;;;;3.78;2.10;;;;;;;;;;5007923;28;20048;-78
2021/07/19 10:45:37;;;;;;;3.40;2.38;;;;;;;;;;5026878;28;20094;-78
2021/07/19 10:48:24;;;;;;;3.70;2.10;;;;;;;;;;5025089;28;20035;-78
2021/07/19 10:51:18;;;;;;;3.42;2.45;;;;;;;;;;5025040;28;21208;-78
2021/07/19 10:54:10;;;;;;;3.67;2.40;;;;;;;;;;5025942;28;20048;-78
2021/07/19 10:56:58;;;;;;;3.97;2.58;;;;;;;;;;5025199;28;20076;-78
2021/07/19 10:59:43;;;;;;;5.38;3.60;;;;;;;;;;5026464;28;20088;-78
2021/07/19 11:02:28;;;;;;;4.65;2.92;;;;;;;;;;5024434;28;20039;-78
2021/07/19 11:05:13;;;;;;;4.63;2.90;;;;;;;;;;5026293;28;20044;-78
2021/07/19 11:07:58;;;;;;;5.35;2.80;;;;;;;;;;5023616;28;20044;-78
2021/07/19 11:10:46;;;;;;;4.68;2.92;;;;;;;;;;5022851;28;20065;-78
2021/07/19 11:13:31;;;;;;;4.72;2.83;;;;;;;;;;5027170;28;20103;-78
2021/07/19 11:16:16;;;;;;;7.22;3.28;;;;;;;;;;5022433;28;20108;-78
2021/07/19 11:19:02;;;;;;;6.90;3.42;;;;;;;;;;5024022;28;20040;-78
2021/07/19 11:21:48;;;;;;;6.47;4.22;;;;;;;;;;5022246;28;20079;-78
2021/07/19 11:24:59;;;;;;;8.57;6.15;;;;;;;;;;5002542;28;20040;-78
2021/07/19 11:27:45;;;;;;;8.63;5.90;;;;;;;;;;5017015;28;20086;-78
2021/07/19 11:30:30;;;;;;;8.27;5.68;;;;;;;;;;5023906;28;20094;-78
2021/07/19 11:33:14;;;;;;;10.93;5.88;;;;;;;;;;5025306;28;20164;-78
2021/07/19 11:35:59;;;;;;;9.98;6.25;;;;;;;;;;5024741;28;20648;-78
2021/07/19 11:38:43;;;;;;;10.32;6.50;;;;;;;;;;5025663;28;20052;-79
2021/07/19 11:41:29;;;;;;;11.52;7.28;;;;;;;;;;5013266;28;20118;-77
2021/07/19 11:44:17;;;;;;;11.02;6.47;;;;;;;;;;5025789;28;20644;-79
2021/07/19 11:47:05;;;;;;;13.57;7.45;;;;;;;;;;5023013;28;20053;-79
2021/07/19 11:49:50;;;;;;;8.63;6.40;;;;;;;;;;5012370;28;20040;-80
2021/07/19 11:52:35;;;;;;;10.27;6.55;;;;;;;;;;5024088;28;20073;-79
2021/07/19 11:55:21;;;;;;;12.27;6.72;;;;;;;;;;5009614;28;20126;-79
2021/07/19 11:58:06;;;;;;;10.80;6.38;;;;;;;;;;5025997;28;20063;-79
2021/07/19 12:00:54;;;;;;;10.95;6.53;;;;;;;;;;5024574;28;20194;-78
2021/07/19 12:03:39;;;;;;;10.25;6.03;;;;;;;;;;5005797;28;20128;-78
2021/07/19 12:06:24;;;;;;;11.70;7.03;;;;;;;;;;5017625;28;20231;-79
2021/07/19 12:09:09;;;;;;;9.82;6.00;;;;;;;;;;5024973;28;20699;-79
2021/07/19 12:11:53;;;;;;;9.52;5.93;;;;;;;;;;5024892;28;20115;-79
2021/07/19 12:14:38;;;;;;;7.20;5.78;;;;;;;;;;5024281;28;20091;-79
2021/07/19 12:17:27;;;;;;;10.25;6.40;;;;;;;;;;5022647;28;20099;-79
2021/07/19 12:20:12;;;;;;;8.45;5.90;;;;;;;;;;5021681;28;20138;-80
2021/07/19 12:22:57;;;;;;;9.63;6.63;;;;;;;;;;5020606;28;20082;-78
2021/07/19 12:25:42;;;;;;;9.10;6.80;;;;;;;;;;5013812;28;20113;-78
2021/07/19 12:28:26;;;;;;;11.63;6.63;;;;;;;;;;5027326;28;20091;-78
2021/07/19 12:31:16;;;;;;;9.13;6.47;;;;;;;;;;5027328;28;20048;-78
2021/07/19 12:34:08;;;;;;;9.65;6.60;;;;;;;;;;5021504;28;20676;-78
2021/07/19 12:36:52;;;;;;;;;;;;;;;;;;5024768;28;20651;-78
2021/07/19 12:39:38;;;;;;;11.30;6.65;;;;;;;;;;5025117;28;20034;-78
2021/07/19 12:42:25;;;;;;;7.65;6.18;;;;;;;;;;5009648;28;20090;-78
2021/07/19 12:45:11;;;;;;;8.25;6.60;;;;;;;;;;5021580;28;20569;-78
2021/07/19 12:47:57;;;;;;;9.43;6.28;;;;;;;;;;5012855;28;20825;-78
2021/07/19 12:50:42;;;;;;;10.05;6.78;;;;;;;;;;5008468;28;20103;-79
2021/07/19 12:53:32;;;;;;;9.52;6.55;;;;;;;;;;5012905;28;20060;-79
2021/07/19 12:56:17;;;;;;;9.15;6.07;;;;;;;;;;5023464;28;20069;-78
2021/07/19 12:59:03;;;;;;;7.22;5.95;;;;;;;;;;5022947;28;20111;-79
2021/07/19 13:01:49;;;;;;;9.15;6.07;;;;;;;;;;5023022;28;20121;-78
2021/07/19 13:04:33;;;;;;;7.80;5.80;;;;;;;;;;5009323;28;20528;-78
2021/07/19 13:07:25;;;;;;;9.32;6.53;;;;;;;;;;5023012;28;20518;-78
2021/07/19 13:10:14;;;;;;;8.45;5.95;;;;;;;;;;5021209;28;20044;-78
2021/07/19 13:12:59;;;;;;;7.82;5.97;;;;;;;;;;5022844;28;20512;-78
2021/07/19 13:15:44;;;;;;;9.85;6.15;;;;;;;;;;5008346;28;20747;-79
2021/07/19 13:18:29;;;;;;;7.35;5.63;;;;;;;;;;5020593;28;20644;-79
2021/07/19 13:21:13;;;;;;;8.27;5.93;;;;;;;;;;5019530;28;20457;-78
2021/07/19 13:23:58;;;;;;;8.77;6.20;;;;;;;;;;5021976;28;20036;-78
2021/07/19 13:26:43;;;;;;;7.43;5.07;;;;;;;;;;5007270;28;20126;-78
2021/07/19 13:29:28;;;;;;;7.43;5.75;;;;;;;;;;5023627;28;20084;-80
2021/07/19 13:32:14;;;;;;;7.85;5.53;;;;;;;;;;5015801;28;20484;-79
2021/07/19 13:34:59;;;;;;;7.82;5.63;;;;;;;;;;5006166;28;20798;-79
2021/07/19 13:37:47;;;;;;;7.68;5.15;;;;;;;;;;5006274;28;20158;-79
2021/07/19 13:40:38;;;;;;;9.55;5.78;;;;;;;;;;5008844;28;20044;-78
2021/07/19 13:43:23;;;;;;;7.30;5.50;;;;;;;;;;5021034;28;20135;-78
2021/07/19 13:46:07;;;;;;;6.60;5.35;;;;;;;;;;5009174;28;20124;-79
2021/07/19 13:48:52;;;;;;;6.85;5.55;;;;;;;;;;5022099;28;20036;-79
2021/07/19 13:51:36;;;;;;;7.85;5.40;;;;;;;;;;5020168;28;20219;-79
2021/07/19 13:54:21;;;;;;;7.38;5.40;;;;;;;;;;5023272;28;20128;-78
2021/07/19 13:57:06;;;;;;;6.80;5.00;;;;;;;;;;5021203;28;20063;-78
2021/07/19 13:59:51;;;;;;;8.52;5.13;;;;;;;;;;5020982;28;20106;-78
2021/07/19 14:02:36;;;;;;;7.82;5.22;;;;;;;;;;5020288;28;20502;-78
2021/07/19 14:05:20;;;;;;;9.93;5.03;;;;;;;;;;5021623;28;20161;-79
2021/07/19 14:08:05;;;;;;;7.55;5.40;;;;;;;;;;5023488;28;20099;-78
2021/07/19 14:10:50;;;;;;;8.13;5.43;;;;;;;;;;5017859;28;20517;-78
2021/07/19 14:13:34;;;;;;;8.18;5.13;;;;;;;;;;5008676;28;20151;-79
2021/07/19 14:16:19;;;;;;;6.45;5.20;;;;;;;;;;5020534;28;20060;-78
2021/07/19 14:19:04;;;;;;;6.55;4.80;;;;;;;;;;5018513;28;20067;-79
2021/07/19 14:21:49;;;;;;;7.13;5.40;;;;;;;;;;5019509;28;20087;-78
2021/07/19 14:24:33;;;;;;;10.30;5.25;;;;;;;;;;5021226;28;20095;-78
2021/07/19 14:27:18;;;;;;;5.80;4.93;;;;;;;;;;5019504;28;20185;-79
2021/07/19 14:30:06;;;;;;;7.63;5.00;;;;;;;;;;5020733;28;20044;-79
2021/07/19 14:32:52;;;;;;;6.65;4.97;;;;;;;;;;5020733;28;20137;-78
2021/07/19 14:35:36;;;;;;;7.20;5.15;;;;;;;;;;5006265;28;20580;-79
2021/07/19 14:38:24;;;;;;;6.45;4.72;;;;;;;;;;5021498;28;20049;-79
2021/07/19 14:41:09;;;;;;;7.20;4.72;;;;;;;;;;5016626;28;20096;-79
2021/07/19 14:43:53;;;;;;;7.50;5.10;;;;;;;;;;5000323;28;20099;-80
2021/07/19 14:46:37;;;;;;;7.82;4.70;;;;;;;;;;5023914;28;20037;-79
2021/07/19 14:49:22;;;;;;;6.93;4.82;;;;;;;;;;5023502;28;20045;-78
2021/07/19 14:52:07;;;;;;;7.57;5.15;;;;;;;;;;5025700;28;20048;-80
2021/07/19 14:54:52;;;;;;;5.78;4.53;;;;;;;;;;5025304;28;20044;-79
2021/07/19 14:57:37;;;;;;;6.05;4.50;;;;;;;;;;5025260;28;20095;-79
2021/07/19 15:00:21;;;;;;;6.43;4.80;;;;;;;;;;5025978;28;20044;-79
2021/07/19 15:03:06;;;;;;;5.60;5.00;;;;;;;;;;5026988;28;20092;-79
2021/07/19 15:05:51;;;;;;;7.25;4.72;;;;;;;;;;5026886;28;20056;-79
2021/07/19 15:08:36;;;;;;;5.60;4.85;;;;;;;;;;5025989;28;20512;-79
2021/07/19 15:11:21;;;;;;;7.70;4.40;;;;;;;;;;5005962;28;20051;-79
2021/07/19 15:14:05;;;;;;;6.38;4.75;;;;;;;;;;5026752;28;20045;-78
2021/07/19 15:16:50;;;;;;;5.82;5.10;;;;;;;;;;5026002;28;20405;-78
2021/07/19 15:19:35;;;;;;;5.75;5.15;;;;;;;;;;5024125;28;20072;-78
2021/07/19 15:22:19;;;;;;;6.15;4.90;;;;;;;;;;5023439;28;20579;-79
2021/07/19 15:25:04;;;;;;;6.38;5.07;;;;;;;;;;5005553;28;20043;-79
2021/07/19 15:27:49;;;;;;;6.18;4.57;;;;;;;;;;5018519;28;20049;-78
2021/07/19 15:30:34;;;;;;;6.22;4.68;;;;;;;;;;5016174;28;20047;-79
2021/07/19 15:33:18;;;;;;;5.60;4.60;;;;;;;;;;5026306;28;20107;-79
2021/07/19 15:36:03;;;;;;;6.00;4.75;;;;;;;;;;5005180;28;20045;-79
2021/07/19 15:38:49;;;;;;;6.60;4.82;;;;;;;;;;5022162;28;20060;-79
2021/07/19 15:41:34;;;;;;;5.57;4.90;;;;;;;;;;5023977;28;20044;-80
2021/07/19 15:44:19;;;;;;;5.43;4.47;;;;;;;;;;5021951;28;20064;-79
2021/07/19 15:47:04;;;;;;;6.80;4.45;;;;;;;;;;5024791;28;20059;-79
2021/07/19 15:49:48;;;;;;;5.65;4.53;;;;;;;;;;5025983;28;20083;-79
2021/07/19 15:52:33;;;;;;;5.05;4.10;;;;;;;;;;5005707;28;20061;-78
2021/07/19 15:55:17;;;;;;;6.05;4.55;;;;;;;;;;5007683;28;20057;-79
2021/07/19 15:58:02;;;;;;;5.20;4.70;;;;;;;;;;5009870;28;20465;-78
2021/07/19 16:00:46;;;;;;;4.97;4.45;;;;;;;;;;5018389;28;20059;-79
2021/07/19 16:03:31;;;;;;;6.70;4.70;;;;;;;;;;5019528;28;20040;-79
2021/07/19 16:06:15;;;;;;;4.90;4.40;;;;;;;;;;5021445;28;20040;-79
2021/07/19 16:09:00;;;;;;;5.95;4.60;;;;;;;;;;5009450;28;20064;-80
2021/07/19 16:11:44;;;;;;;6.75;4.30;;;;;;;;;;5020624;28;20048;-80
2021/07/19 16:14:29;;;;;;;5.43;4.63;;;;;;;;;;5024629;28;20514;-79
2021/07/19 16:17:13;;;;;;;7.47;4.47;;;;;;;;;;5021632;28;20504;-80
2021/07/19 16:19:58;;;;;;;5.93;4.50;;;;;;;;;;5023545;28;20117;-80
2021/07/19 16:22:42;;;;;;;6.70;4.22;;;;;;;;;;5022613;28;20031;-79
2021/07/19 16:25:27;;;;;;;5.15;4.15;;;;;;;;;;5021433;28;20122;-79
2021/07/19 16:28:11;;;;;;;4.82;4.35;;;;;;;;;;5024781;28;20048;-80
2021/07/19 16:30:56;;;;;;;5.95;4.25;;;;;;;;;;5024775;28;20096;-80